createdAt,value
2018-04-24T00:00:26.437Z,0
2018-04-24T00:01:28.870Z,0
2018-04-24T00:02:31.313Z,0
2018-04-24T00:03:33.756Z,0
2018-04-24T00:04:36.194Z,0
2018-04-24T00:05:38.640Z,0
2018-04-24T00:06:41.075Z,0
2018-04-24T00:07:43.518Z,0
2018-04-24T00:08:45.949Z,0
2018-04-24T00:09:48.464Z,0
2018-04-24T00:10:50.826Z,0
2018-04-24T00:11:53.576Z,0
2018-04-24T00:12:56.329Z,0
2018-04-24T00:13:59.053Z,0
2018-04-24T00:15:01.488Z,0
2018-04-24T00:16:04.506Z,0
2018-04-24T00:17:06.937Z,0
2018-04-24T00:18:09.374Z,0
2018-04-24T00:19:12.095Z,0
2018-04-24T00:20:14.536Z,0
2018-04-24T00:21:17.249Z,0
2018-04-24T00:22:19.692Z,0
2018-04-24T00:23:22.131Z,0
2018-04-24T00:24:24.564Z,0
2018-04-24T00:25:27.289Z,0
2018-04-24T00:26:29.736Z,0
2018-04-24T00:27:32.168Z,0
2018-04-24T00:28:34.611Z,0
2018-04-24T00:29:37.056Z,0
2018-04-24T00:30:39.490Z,0
2018-04-24T00:31:41.925Z,0
2018-04-24T00:32:44.362Z,0
2018-04-24T00:33:46.808Z,0
2018-04-24T00:34:49.630Z,0
2018-04-24T00:35:52.073Z,0
2018-04-24T00:36:54.514Z,0
2018-04-24T00:37:56.929Z,0
2018-04-24T00:38:59.755Z,0
2018-04-24T00:40:02.197Z,0
2018-04-24T00:41:04.627Z,0
2018-04-24T00:42:07.737Z,0
2018-04-24T00:43:10.854Z,0
2018-04-24T00:44:13.569Z,0
2018-04-24T00:45:16.023Z,0
2018-04-24T00:46:18.447Z,0
2018-04-24T00:47:21.472Z,0
2018-04-24T00:48:24.300Z,0
2018-04-24T00:49:27.014Z,0
2018-04-24T00:50:29.848Z,0
2018-04-24T00:51:32.302Z,0
2018-04-24T00:52:34.729Z,0
2018-04-24T00:53:37.163Z,0
2018-04-24T00:54:39.891Z,0
2018-04-24T00:55:42.320Z,0
2018-04-24T00:56:45.063Z,0
2018-04-24T00:57:47.506Z,0
2018-04-24T00:58:50.227Z,0
2018-04-24T00:59:52.652Z,0
2018-04-24T01:00:55.091Z,0
2018-04-24T01:01:57.819Z,0
2018-04-24T01:03:00.539Z,0
2018-04-24T01:04:03.252Z,0
2018-04-24T01:05:05.975Z,0
2018-04-24T01:06:08.705Z,0
2018-04-24T01:07:11.133Z,0
2018-04-24T01:08:13.568Z,0
2018-04-24T01:09:15.996Z,0
2018-04-24T01:10:18.423Z,0
2018-04-24T01:11:21.556Z,0
2018-04-24T01:12:24.264Z,0
2018-04-24T01:13:26.694Z,0
2018-04-24T01:14:29.409Z,0
2018-04-24T01:15:32.123Z,0
2018-04-24T01:16:34.870Z,0
2018-04-24T01:17:37.309Z,0
2018-04-24T01:18:39.728Z,0
2018-04-24T01:19:42.465Z,0
2018-04-24T01:20:44.899Z,0
2018-04-24T01:21:47.329Z,0
2018-04-24T01:22:49.768Z,0
2018-04-24T01:23:52.495Z,0
2018-04-24T01:24:54.913Z,0
2018-04-24T01:25:57.359Z,0
2018-04-24T01:26:59.782Z,0
2018-04-24T01:28:02.513Z,0
2018-04-24T01:29:04.939Z,0
2018-04-24T01:30:07.664Z,0
2018-04-24T01:31:10.098Z,0
2018-04-24T01:32:12.531Z,0
2018-04-24T01:33:14.954Z,0
2018-04-24T01:34:17.397Z,0
2018-04-24T01:35:20.110Z,0
2018-04-24T01:36:22.541Z,0
2018-04-24T01:37:24.976Z,0
2018-04-24T01:38:27.417Z,0
2018-04-24T01:39:29.862Z,0
2018-04-24T01:40:32.292Z,0
2018-04-24T01:41:34.722Z,0
2018-04-24T01:42:37.158Z,0
2018-04-24T01:43:39.596Z,0
2018-04-24T01:44:42.020Z,0
2018-04-24T01:45:44.464Z,0
2018-04-24T01:46:46.904Z,0
2018-04-24T01:47:49.335Z,0
2018-04-24T01:48:51.773Z,0
2018-04-24T01:49:54.499Z,0
2018-04-24T01:50:57.216Z,0
2018-04-24T01:51:59.661Z,0
2018-04-24T01:53:02.382Z,0
2018-04-24T01:54:05.088Z,0
2018-04-24T01:55:07.811Z,0
2018-04-24T01:56:10.243Z,0
2018-04-24T01:57:12.683Z,0
2018-04-24T01:58:15.107Z,0
2018-04-24T01:59:17.567Z,0
2018-04-24T02:00:19.997Z,0
2018-04-24T02:01:22.808Z,0
2018-04-24T02:02:25.244Z,0
2018-04-24T02:03:27.674Z,0
2018-04-24T02:04:30.109Z,0
2018-04-24T02:05:32.546Z,0
2018-04-24T02:06:35.259Z,0
2018-04-24T02:07:38.066Z,0
2018-04-24T02:08:40.499Z,0
2018-04-24T02:09:42.930Z,0
2018-04-24T02:10:45.362Z,0
2018-04-24T02:11:47.804Z,0
2018-04-24T02:12:50.525Z,0
2018-04-24T02:13:53.634Z,0
2018-04-24T02:14:56.071Z,0
2018-04-24T02:15:58.509Z,0
2018-04-24T02:17:00.945Z,0
2018-04-24T02:18:03.378Z,0
2018-04-24T02:19:06.090Z,0
2018-04-24T02:20:09.112Z,0
2018-04-24T02:21:12.122Z,0
2018-04-24T02:22:15.157Z,0
2018-04-24T02:23:17.580Z,0
2018-04-24T02:24:20.017Z,0
2018-04-24T02:25:22.448Z,0
2018-04-24T02:26:24.886Z,0
2018-04-24T02:27:27.609Z,0
2018-04-24T02:28:30.034Z,0
2018-04-24T02:29:32.850Z,0
2018-04-24T02:30:35.288Z,0
2018-04-24T02:31:37.730Z,0
2018-04-24T02:32:40.918Z,0
2018-04-24T02:33:43.355Z,0
2018-04-24T02:34:46.172Z,0
2018-04-24T02:35:48.608Z,0
2018-04-24T02:36:51.078Z,0
2018-04-24T02:37:53.808Z,0
2018-04-24T02:38:56.549Z,0
2018-04-24T02:39:58.975Z,0
2018-04-24T02:41:02.016Z,0
2018-04-24T02:42:04.448Z,0
2018-04-24T02:43:06.886Z,0
2018-04-24T02:44:09.621Z,0
2018-04-24T02:45:12.340Z,0
2018-04-24T02:46:15.463Z,0
2018-04-24T02:47:18.178Z,0
2018-04-24T02:48:20.901Z,0
2018-04-24T02:49:23.322Z,0
2018-04-24T02:50:26.081Z,0
2018-04-24T02:51:28.536Z,0
2018-04-24T02:52:31.556Z,0
2018-04-24T02:53:33.989Z,0
2018-04-24T02:54:37.696Z,0
2018-04-24T02:55:40.806Z,0
2018-04-24T02:56:43.645Z,0
2018-04-24T02:57:46.661Z,0
2018-04-24T02:58:49.097Z,0
2018-04-24T02:59:51.819Z,0
2018-04-24T03:00:54.252Z,0
2018-04-24T03:01:56.694Z,0
2018-04-24T03:02:59.525Z,0
2018-04-24T03:04:02.251Z,0
2018-04-24T03:05:05.272Z,0
2018-04-24T03:06:08.004Z,0
2018-04-24T03:07:10.421Z,0
2018-04-24T03:08:13.453Z,0
2018-04-24T03:09:15.885Z,0
2018-04-24T03:10:18.597Z,0
2018-04-24T03:11:21.037Z,0
2018-04-24T03:12:23.477Z,0
2018-04-24T03:13:26.205Z,0
2018-04-24T03:14:28.941Z,0
2018-04-24T03:15:31.649Z,0
2018-04-24T03:16:34.081Z,0
2018-04-24T03:17:36.520Z,0
2018-04-24T03:18:38.945Z,0
2018-04-24T03:19:41.374Z,0
2018-04-24T03:20:44.093Z,0
2018-04-24T03:21:46.817Z,0
2018-04-24T03:22:49.536Z,4
2018-04-24T03:23:51.975Z,4
2018-04-24T03:24:54.397Z,4
2018-04-24T03:25:57.119Z,4
2018-04-24T03:26:59.554Z,4
2018-04-24T03:28:01.987Z,4
2018-04-24T03:29:04.426Z,4
2018-04-24T03:30:06.873Z,8
2018-04-24T03:31:10.263Z,4
2018-04-24T03:32:13.088Z,8
2018-04-24T03:33:15.519Z,8
2018-04-24T03:34:18.263Z,12
2018-04-24T03:35:20.690Z,16
2018-04-24T03:36:23.130Z,20
2018-04-24T03:37:25.564Z,20
2018-04-24T03:38:28.270Z,20
2018-04-24T03:39:30.702Z,20
2018-04-24T03:40:33.140Z,20
2018-04-24T03:41:35.558Z,28
2018-04-24T03:42:38.282Z,32
2018-04-24T03:43:40.722Z,36
2018-04-24T03:44:43.152Z,40
2018-04-24T03:45:45.596Z,44
2018-04-24T03:46:48.307Z,48
2018-04-24T03:47:51.029Z,52
2018-04-24T03:48:53.763Z,56
2018-04-24T03:49:56.199Z,68
2018-04-24T03:50:58.629Z,72
2018-04-24T03:52:01.371Z,76
2018-04-24T03:53:04.484Z,76
2018-04-24T03:54:07.214Z,76
2018-04-24T03:55:09.939Z,84
2018-04-24T03:56:12.379Z,104
2018-04-24T03:57:15.157Z,128
2018-04-24T03:58:17.938Z,144
2018-04-24T03:59:20.379Z,172
2018-04-24T04:00:22.815Z,192
2018-04-24T04:01:25.248Z,216
2018-04-24T04:02:27.694Z,260
2018-04-24T04:03:30.124Z,312
2018-04-24T04:04:32.858Z,348
2018-04-24T04:05:35.311Z,372
2018-04-24T04:06:38.037Z,404
2018-04-24T04:07:41.124Z,428
2018-04-24T04:08:43.490Z,452
2018-04-24T04:09:46.203Z,500
2018-04-24T04:10:48.922Z,540
2018-04-24T04:11:51.358Z,568
2018-04-24T04:12:54.086Z,600
2018-04-24T04:13:56.522Z,636
2018-04-24T04:14:58.955Z,652
2018-04-24T04:16:01.594Z,708
2018-04-24T04:17:04.748Z,812
2018-04-24T04:18:07.176Z,880
2018-04-24T04:19:09.610Z,908
2018-04-24T04:20:12.358Z,916
2018-04-24T04:21:14.788Z,912
2018-04-24T04:22:17.233Z,960
2018-04-24T04:23:20.546Z,1048
2018-04-24T04:24:22.978Z,1132
2018-04-24T04:25:25.724Z,1224
2018-04-24T04:26:28.438Z,1316
2018-04-24T04:27:31.157Z,1384
2018-04-24T04:28:33.597Z,1452
2018-04-24T04:29:36.020Z,1524
2018-04-24T04:30:38.455Z,1576
2018-04-24T04:31:40.901Z,1600
2018-04-24T04:32:43.325Z,1616
2018-04-24T04:33:45.768Z,1704
2018-04-24T04:34:48.188Z,1788
2018-04-24T04:35:50.616Z,1836
2018-04-24T04:36:53.061Z,1848
2018-04-24T04:37:55.501Z,1840
2018-04-24T04:38:58.205Z,1808
2018-04-24T04:40:00.939Z,1708
2018-04-24T04:41:03.353Z,1668
2018-04-24T04:42:05.798Z,1640
2018-04-24T04:43:08.226Z,1812
2018-04-24T04:44:10.949Z,1964
2018-04-24T04:45:13.388Z,2056
2018-04-24T04:46:15.837Z,2172
2018-04-24T04:47:18.270Z,2208
2018-04-24T04:48:20.718Z,2084
2018-04-24T04:49:23.148Z,2160
2018-04-24T04:50:25.872Z,2132
2018-04-24T04:51:28.315Z,2036
2018-04-24T04:52:30.747Z,2068
2018-04-24T04:53:33.177Z,2164
2018-04-24T04:54:35.618Z,1976
2018-04-24T04:55:38.047Z,1804
2018-04-24T04:56:40.488Z,2056
2018-04-24T04:57:43.531Z,2172
2018-04-24T04:58:45.962Z,2440
2018-04-24T04:59:48.784Z,2708
2018-04-24T05:00:51.215Z,2952
2018-04-24T05:01:53.651Z,3180
2018-04-24T05:02:56.081Z,3260
2018-04-24T05:03:58.509Z,2964
2018-04-24T05:05:01.233Z,2772
2018-04-24T05:06:03.664Z,2652
2018-04-24T05:07:06.112Z,2808
2018-04-24T05:08:08.548Z,3148
2018-04-24T05:09:11.272Z,4164
2018-04-24T05:10:13.705Z,4376
2018-04-24T05:11:16.146Z,3584
2018-04-24T05:12:18.960Z,2788
2018-04-24T05:13:21.393Z,2860
2018-04-24T05:14:24.137Z,2896
2018-04-24T05:15:26.567Z,3368
2018-04-24T05:16:29.001Z,3636
2018-04-24T05:17:31.430Z,3528
2018-04-24T05:18:33.863Z,3512
2018-04-24T05:19:36.992Z,3824
2018-04-24T05:20:39.435Z,4028
2018-04-24T05:21:41.862Z,4136
2018-04-24T05:22:44.584Z,4344
2018-04-24T05:23:47.032Z,4792
2018-04-24T05:24:49.456Z,5256
2018-04-24T05:25:51.894Z,5756
2018-04-24T05:26:54.337Z,5936
2018-04-24T05:27:56.767Z,5752
2018-04-24T05:28:59.193Z,5680
2018-04-24T05:30:01.632Z,5928
2018-04-24T05:31:04.076Z,6092
2018-04-24T05:32:06.511Z,6120
2018-04-24T05:33:08.952Z,5928
2018-04-24T05:34:11.782Z,5744
2018-04-24T05:35:14.818Z,5680
2018-04-24T05:36:17.261Z,5560
2018-04-24T05:37:19.700Z,5548
2018-04-24T05:38:22.124Z,5588
2018-04-24T05:39:24.564Z,5716
2018-04-24T05:40:27.006Z,6060
2018-04-24T05:41:29.443Z,6064
2018-04-24T05:42:31.892Z,5924
2018-04-24T05:43:34.312Z,5912
2018-04-24T05:44:36.740Z,5960
2018-04-24T05:45:39.200Z,6376
2018-04-24T05:46:42.071Z,7076
2018-04-24T05:47:44.943Z,7940
2018-04-24T05:48:47.382Z,8716
2018-04-24T05:49:49.815Z,9328
2018-04-24T05:50:52.258Z,9788
2018-04-24T05:51:54.700Z,9764
2018-04-24T05:52:57.192Z,9208
2018-04-24T05:53:59.567Z,9040
2018-04-24T05:55:02.679Z,9112
2018-04-24T05:56:05.410Z,9168
2018-04-24T05:57:07.833Z,9456
2018-04-24T05:58:10.276Z,9660
2018-04-24T05:59:12.711Z,9664
2018-04-24T06:00:15.529Z,9456
2018-04-24T06:01:17.970Z,8780
2018-04-24T06:02:20.703Z,7976
2018-04-24T06:03:23.128Z,7152
2018-04-24T06:04:25.583Z,6824
2018-04-24T06:05:28.016Z,7012
2018-04-24T06:06:30.458Z,7148
2018-04-24T06:07:33.202Z,7204
2018-04-24T06:08:35.738Z,7316
2018-04-24T06:09:38.087Z,7088
2018-04-24T06:10:40.531Z,6856
2018-04-24T06:11:42.965Z,6788
2018-04-24T06:12:45.408Z,6680
2018-04-24T06:13:47.840Z,6640
2018-04-24T06:14:50.661Z,6744
2018-04-24T06:15:53.096Z,7088
2018-04-24T06:16:55.525Z,7484
2018-04-24T06:17:58.182Z,7972
2018-04-24T06:19:00.616Z,8320
2018-04-24T06:20:03.367Z,8492
2018-04-24T06:21:05.805Z,8472
2018-04-24T06:22:08.237Z,9092
2018-04-24T06:23:10.679Z,9692
2018-04-24T06:24:13.967Z,10452
2018-04-24T06:25:16.405Z,10856
2018-04-24T06:26:18.844Z,11232
2018-04-24T06:27:21.576Z,11676
2018-04-24T06:28:24.025Z,12100
2018-04-24T06:29:26.446Z,12932
2018-04-24T06:30:28.886Z,12920
2018-04-24T06:31:31.703Z,11440
2018-04-24T06:32:34.136Z,10540
2018-04-24T06:33:36.871Z,10360
2018-04-24T06:34:39.692Z,10548
2018-04-24T06:35:42.142Z,10616
2018-04-24T06:36:44.886Z,9964
2018-04-24T06:37:47.605Z,11100
2018-04-24T06:38:50.054Z,13256
2018-04-24T06:39:52.488Z,11488
2018-04-24T06:40:54.923Z,12880
2018-04-24T06:41:57.367Z,16112
2018-04-24T06:42:59.828Z,17712
2018-04-24T06:44:02.858Z,16068
2018-04-24T06:45:05.582Z,15240
2018-04-24T06:46:08.023Z,16396
2018-04-24T06:47:10.462Z,16192
2018-04-24T06:48:13.187Z,15632
2018-04-24T06:49:15.634Z,15832
2018-04-24T06:50:18.368Z,15932
2018-04-24T06:51:21.078Z,16524
2018-04-24T06:52:23.531Z,15696
2018-04-24T06:53:25.967Z,15364
2018-04-24T06:54:28.508Z,14532
2018-04-24T06:55:31.233Z,14156
2018-04-24T06:56:34.498Z,14288
2018-04-24T06:57:37.231Z,13736
2018-04-24T06:58:39.671Z,13120
2018-04-24T06:59:42.213Z,13648
2018-04-24T07:00:44.706Z,14480
2018-04-24T07:01:47.125Z,14948
2018-04-24T07:02:49.579Z,16096
2018-04-24T07:03:52.025Z,15964
2018-04-24T07:04:54.474Z,17100
2018-04-24T07:05:57.312Z,18248
2018-04-24T07:06:59.848Z,18464
2018-04-24T07:08:02.299Z,16988
2018-04-24T07:09:04.725Z,15800
2018-04-24T07:10:07.470Z,16740
2018-04-24T07:11:10.086Z,18100
2018-04-24T07:12:12.511Z,18044
2018-04-24T07:13:15.275Z,17964
2018-04-24T07:14:17.719Z,17716
2018-04-24T07:15:20.181Z,17184
2018-04-24T07:16:22.634Z,17404
2018-04-24T07:17:25.303Z,20960
2018-04-24T07:18:27.739Z,22400
2018-04-24T07:19:30.185Z,21984
2018-04-24T07:20:33.292Z,19904
2018-04-24T07:21:35.730Z,18592
2018-04-24T07:22:38.461Z,15372
2018-04-24T07:23:41.482Z,14668
2018-04-24T07:24:43.919Z,14036
2018-04-24T07:25:46.651Z,15000
2018-04-24T07:26:49.102Z,14464
2018-04-24T07:27:51.527Z,15392
2018-04-24T07:28:53.977Z,18912
2018-04-24T07:29:56.711Z,22304
2018-04-24T07:30:59.165Z,23424
2018-04-24T07:32:01.603Z,23584
2018-04-24T07:33:04.445Z,23200
2018-04-24T07:34:06.880Z,22880
2018-04-24T07:35:09.999Z,21376
2018-04-24T07:36:12.442Z,21408
2018-04-24T07:37:14.880Z,21760
2018-04-24T07:38:17.321Z,23328
2018-04-24T07:39:20.066Z,26720
2018-04-24T07:40:22.513Z,27168
2018-04-24T07:41:24.963Z,25696
2018-04-24T07:42:27.412Z,23456
2018-04-24T07:43:29.833Z,22752
2018-04-24T07:44:32.274Z,22976
2018-04-24T07:45:35.107Z,19200
2018-04-24T07:46:37.579Z,17240
2018-04-24T07:47:40.405Z,14904
2018-04-24T07:48:42.835Z,14768
2018-04-24T07:49:45.684Z,13796
2018-04-24T07:50:48.121Z,10640
2018-04-24T07:51:50.836Z,9228
2018-04-24T07:52:53.279Z,9088
2018-04-24T07:53:55.715Z,9504
2018-04-24T07:54:58.446Z,9020
2018-04-24T07:56:00.903Z,10052
2018-04-24T07:57:03.617Z,8468
2018-04-24T07:58:06.374Z,7388
2018-04-24T07:59:09.083Z,6724
2018-04-24T08:00:11.521Z,7788
2018-04-24T08:01:14.276Z,8316
2018-04-24T08:02:16.709Z,8380
2018-04-24T08:03:19.151Z,11948
2018-04-24T08:04:21.583Z,11796
2018-04-24T08:05:24.024Z,9636
2018-04-24T08:06:26.754Z,10852
2018-04-24T08:07:29.500Z,11476
2018-04-24T08:08:31.941Z,13896
2018-04-24T08:09:34.380Z,15060
2018-04-24T08:10:36.815Z,16736
2018-04-24T08:11:39.256Z,15288
2018-04-24T08:12:42.286Z,13972
2018-04-24T08:13:44.715Z,15976
2018-04-24T08:14:47.166Z,21632
2018-04-24T08:15:49.596Z,22368
2018-04-24T08:16:52.031Z,21696
2018-04-24T08:17:54.466Z,21440
2018-04-24T08:18:57.183Z,19904
2018-04-24T08:19:59.630Z,19168
2018-04-24T08:21:02.453Z,23424
2018-04-24T08:22:05.190Z,21376
2018-04-24T08:23:07.622Z,16424
2018-04-24T08:24:10.056Z,15184
2018-04-24T08:25:12.516Z,13100
2018-04-24T08:26:14.943Z,14008
2018-04-24T08:27:17.373Z,14948
2018-04-24T08:28:19.813Z,12464
2018-04-24T08:29:22.251Z,11732
2018-04-24T08:30:24.697Z,13272
2018-04-24T08:31:27.134Z,18396
2018-04-24T08:32:29.560Z,22176
2018-04-24T08:33:31.998Z,28576
2018-04-24T08:34:34.441Z,29024
2018-04-24T08:35:36.884Z,26432
2018-04-24T08:36:39.911Z,12008
2018-04-24T08:37:42.725Z,12532
2018-04-24T08:38:45.446Z,15552
2018-04-24T08:39:47.892Z,14432
2018-04-24T08:40:50.337Z,14988
2018-04-24T08:41:53.045Z,13440
2018-04-24T08:42:55.800Z,10748
2018-04-24T08:43:58.244Z,10064
2018-04-24T08:45:01.068Z,10160
2018-04-24T08:46:03.798Z,9476
2018-04-24T08:47:06.222Z,12016
2018-04-24T08:48:08.654Z,10164
2018-04-24T08:49:11.405Z,13660
2018-04-24T08:50:13.838Z,14484
2018-04-24T08:51:16.276Z,12964
2018-04-24T08:52:18.999Z,13848
2018-04-24T08:53:21.434Z,12464
2018-04-24T08:54:24.847Z,10224
2018-04-24T08:55:27.285Z,9192
2018-04-24T08:56:29.821Z,11200
2018-04-24T08:57:33.077Z,10672
2018-04-24T08:58:35.797Z,11340
2018-04-24T08:59:38.236Z,11152
2018-04-24T09:00:40.662Z,9016
2018-04-24T09:01:43.106Z,7568
2018-04-24T09:02:45.543Z,8708
2018-04-24T09:03:47.977Z,8528
2018-04-24T09:04:50.703Z,7656
2018-04-24T09:05:53.781Z,6940
2018-04-24T09:06:56.220Z,9132
2018-04-24T09:07:59.057Z,9444
2018-04-24T09:09:01.895Z,6868
2018-04-24T09:10:04.349Z,6496
2018-04-24T09:11:07.202Z,6828
2018-04-24T09:12:10.076Z,5900
2018-04-24T09:13:12.532Z,5920
2018-04-24T09:14:15.619Z,5988
2018-04-24T09:15:18.070Z,5624
2018-04-24T09:16:20.650Z,6712
2018-04-24T09:17:23.573Z,6652
2018-04-24T09:18:26.971Z,7192
2018-04-24T09:19:29.666Z,7512
2018-04-24T09:20:32.578Z,6624
2018-04-24T09:21:35.268Z,5864
2018-04-24T09:22:37.938Z,5664
2018-04-24T09:23:40.672Z,6816
2018-04-24T09:24:43.120Z,9048
2018-04-24T09:25:45.928Z,8292
2018-04-24T09:26:48.548Z,6892
2018-04-24T09:27:51.224Z,6732
2018-04-24T09:28:53.704Z,7460
2018-04-24T09:29:57.541Z,7400
2018-04-24T09:31:00.641Z,6048
2018-04-24T09:32:04.430Z,6580
2018-04-24T09:33:06.864Z,6000
2018-04-24T09:34:09.307Z,5740
2018-04-24T09:35:11.741Z,5580
2018-04-24T09:36:14.188Z,5280
2018-04-24T09:37:16.915Z,5856
2018-04-24T09:38:19.356Z,6872
2018-04-24T09:39:21.797Z,7936
2018-04-24T09:40:24.236Z,9384
2018-04-24T09:41:26.675Z,9632
2018-04-24T09:42:29.120Z,10800
2018-04-24T09:43:31.554Z,13076
2018-04-24T09:44:34.035Z,17768
2018-04-24T09:45:36.469Z,19776
2018-04-24T09:46:38.913Z,20032
2018-04-24T09:47:41.341Z,22752
2018-04-24T09:48:43.791Z,21632
2018-04-24T09:49:46.224Z,18356
2018-04-24T09:50:49.050Z,16188
2018-04-24T09:51:51.492Z,11904
2018-04-24T09:52:53.929Z,11236
2018-04-24T09:53:56.362Z,11856
2018-04-24T09:54:59.085Z,8320
2018-04-24T09:56:01.536Z,5948
2018-04-24T09:57:04.546Z,7384
2018-04-24T09:58:06.977Z,9924
2018-04-24T09:59:09.421Z,9604
2018-04-24T10:00:11.866Z,9992
2018-04-24T10:01:14.603Z,12928
2018-04-24T10:02:17.094Z,14312
2018-04-24T10:03:20.295Z,11520
2018-04-24T10:04:22.728Z,10256
2018-04-24T10:05:25.180Z,12772
2018-04-24T10:06:27.895Z,14124
2018-04-24T10:07:30.620Z,14304
2018-04-24T10:08:33.446Z,13720
2018-04-24T10:09:35.879Z,12496
2018-04-24T10:10:38.395Z,10180
2018-04-24T10:11:40.800Z,11292
2018-04-24T10:12:43.222Z,9552
2018-04-24T10:13:45.708Z,8872
2018-04-24T10:14:48.867Z,8076
2018-04-24T10:15:51.300Z,8888
2018-04-24T10:16:54.136Z,7832
2018-04-24T10:17:56.567Z,7760
2018-04-24T10:18:59.290Z,7456
2018-04-24T10:20:02.141Z,6724
2018-04-24T10:21:04.583Z,6056
2018-04-24T10:22:07.011Z,4780
2018-04-24T10:23:09.447Z,4752
2018-04-24T10:24:11.897Z,5116
2018-04-24T10:25:14.333Z,6244
2018-04-24T10:26:16.771Z,5776
2018-04-24T10:27:19.297Z,7384
2018-04-24T10:28:22.044Z,6124
2018-04-24T10:29:24.488Z,7944
2018-04-24T10:30:26.939Z,9316
2018-04-24T10:31:30.001Z,16552
2018-04-24T10:32:32.735Z,11420
2018-04-24T10:33:35.569Z,15084
2018-04-24T10:34:38.015Z,13192
2018-04-24T10:35:40.517Z,14312
2018-04-24T10:36:42.941Z,18360
2018-04-24T10:37:45.381Z,16588
2018-04-24T10:38:47.827Z,14620
2018-04-24T10:39:50.260Z,10196
2018-04-24T10:40:52.704Z,9688
2018-04-24T10:41:55.143Z,8876
2018-04-24T10:42:57.581Z,9648
2018-04-24T10:44:00.031Z,8084
2018-04-24T10:45:02.473Z,8576
2018-04-24T10:46:05.201Z,8716
2018-04-24T10:47:07.646Z,8464
2018-04-24T10:48:10.703Z,8728
2018-04-24T10:49:13.101Z,13884
2018-04-24T10:50:15.533Z,12228
2018-04-24T10:51:17.976Z,14540
2018-04-24T10:52:20.416Z,17508
2018-04-24T10:53:22.854Z,20576
2018-04-24T10:54:25.593Z,15080
2018-04-24T10:55:28.608Z,10568
2018-04-24T10:56:31.340Z,10204
2018-04-24T10:57:33.758Z,14852
2018-04-24T10:58:36.496Z,15648
2018-04-24T10:59:38.944Z,14460
2018-04-24T11:00:41.469Z,18496
2018-04-24T11:01:43.890Z,16264
2018-04-24T11:02:46.313Z,21408
2018-04-24T11:03:48.740Z,24512
2018-04-24T11:04:51.494Z,27008
2018-04-24T11:05:54.245Z,31808
2018-04-24T11:06:56.677Z,32064
2018-04-24T11:07:59.115Z,29792
2018-04-24T11:09:01.843Z,24800
2018-04-24T11:10:04.592Z,20640
2018-04-24T11:11:07.029Z,28576
2018-04-24T11:12:09.462Z,22720
2018-04-24T11:13:11.901Z,18072
2018-04-24T11:14:14.338Z,18092
2018-04-24T11:15:17.734Z,15752
2018-04-24T11:16:20.171Z,20832
2018-04-24T11:17:22.608Z,21696
2018-04-24T11:18:25.329Z,18584
2018-04-24T11:19:27.779Z,18480
2018-04-24T11:20:30.488Z,24160
2018-04-24T11:21:32.932Z,21888
2018-04-24T11:22:35.444Z,18696
2018-04-24T11:23:37.808Z,17024
2018-04-24T11:24:40.247Z,14688
2018-04-24T11:25:42.686Z,13628
2018-04-24T11:26:45.523Z,13196
2018-04-24T11:27:48.256Z,9816
2018-04-24T11:28:50.692Z,10432
2018-04-24T11:29:53.127Z,9356
2018-04-24T11:30:55.575Z,7388
2018-04-24T11:31:58.009Z,8748
2018-04-24T11:33:00.448Z,7400
2018-04-24T11:34:02.894Z,6160
2018-04-24T11:35:05.337Z,9724
2018-04-24T11:36:07.769Z,9012
2018-04-24T11:37:10.214Z,7448
2018-04-24T11:38:12.646Z,5504
2018-04-24T11:39:15.084Z,6640
2018-04-24T11:40:17.750Z,8904
2018-04-24T11:41:20.568Z,9416
2018-04-24T11:42:23.412Z,10716
2018-04-24T11:43:25.809Z,11728
2018-04-24T11:44:28.988Z,10028
2018-04-24T11:45:31.375Z,10960
2018-04-24T11:46:33.764Z,11608
2018-04-24T11:47:36.506Z,9232
2018-04-24T11:48:38.983Z,8056
2018-04-24T11:49:41.387Z,7732
2018-04-24T11:50:44.066Z,6476
2018-04-24T11:51:46.516Z,5296
2018-04-24T11:52:48.920Z,5648
2018-04-24T11:53:51.517Z,5080
2018-04-24T11:54:54.236Z,4512
2018-04-24T11:55:56.633Z,4072
2018-04-24T11:56:59.088Z,4708
2018-04-24T11:58:01.473Z,4668
2018-04-24T11:59:04.761Z,4972
2018-04-24T12:00:07.203Z,4156
2018-04-24T12:01:09.578Z,4560
2018-04-24T12:02:12.067Z,4428
2018-04-24T12:03:14.467Z,4236
2018-04-24T12:04:16.905Z,4488
2018-04-24T12:05:19.739Z,3744
2018-04-24T12:06:24.224Z,5464
2018-04-24T12:07:27.009Z,5232
2018-04-24T12:08:29.960Z,5232
2018-04-24T12:09:32.338Z,5940
2018-04-24T12:10:34.741Z,6072
2018-04-24T12:11:37.180Z,6704
2018-04-24T12:12:39.919Z,7000
2018-04-24T12:13:42.369Z,6620
2018-04-24T12:14:45.141Z,6408
2018-04-24T12:15:47.637Z,6492
2018-04-24T12:16:50.587Z,7640
2018-04-24T12:17:53.077Z,7568
2018-04-24T12:18:55.536Z,8368
2018-04-24T12:19:58.058Z,8076
2018-04-24T12:21:00.499Z,10932
2018-04-24T12:22:02.945Z,10604
2018-04-24T12:23:05.392Z,9916
2018-04-24T12:24:07.849Z,10456
2018-04-24T12:25:10.317Z,10152
2018-04-24T12:26:12.762Z,11376
2018-04-24T12:27:15.315Z,11456
2018-04-24T12:28:17.897Z,10364
2018-04-24T12:29:20.626Z,12464
2018-04-24T12:30:23.064Z,9748
2018-04-24T12:31:25.501Z,10168
2018-04-24T12:32:27.945Z,12072
2018-04-24T12:33:30.436Z,12036
2018-04-24T12:34:33.181Z,11648
2018-04-24T12:35:36.012Z,12248
2018-04-24T12:36:38.857Z,11532
2018-04-24T12:37:41.296Z,10260
2018-04-24T12:38:43.734Z,9156
2018-04-24T12:39:47.292Z,8136
2018-04-24T12:40:50.043Z,7940
2018-04-24T12:41:52.762Z,9204
2018-04-24T12:42:55.220Z,7880
2018-04-24T12:43:57.657Z,7788
2018-04-24T12:45:00.097Z,8084
2018-04-24T12:46:02.551Z,9056
2018-04-24T12:47:05.283Z,7896
2018-04-24T12:48:07.727Z,7512
2018-04-24T12:49:10.165Z,7292
2018-04-24T12:50:12.612Z,7232
2018-04-24T12:51:15.059Z,7692
2018-04-24T12:52:17.475Z,7388
2018-04-24T12:53:19.925Z,7024
2018-04-24T12:54:22.644Z,6040
2018-04-24T12:55:25.083Z,6608
2018-04-24T12:56:27.579Z,5704
2018-04-24T12:57:30.293Z,5384
2018-04-24T12:58:33.015Z,5776
2018-04-24T12:59:35.850Z,5700
2018-04-24T13:00:38.585Z,7508
2018-04-24T13:01:41.313Z,6500
2018-04-24T13:02:43.749Z,6716
2018-04-24T13:03:46.204Z,6188
2018-04-24T13:04:48.763Z,6180
2018-04-24T13:05:51.354Z,5112
2018-04-24T13:06:54.081Z,4716
2018-04-24T13:07:56.525Z,4360
2018-04-24T13:08:58.966Z,4448
2018-04-24T13:10:01.694Z,4576
2018-04-24T13:11:04.133Z,4372
2018-04-24T13:12:06.572Z,4188
2018-04-24T13:13:09.302Z,4000
2018-04-24T13:14:12.037Z,3456
2018-04-24T13:15:14.476Z,3436
2018-04-24T13:16:16.923Z,2792
2018-04-24T13:17:19.654Z,2532
2018-04-24T13:18:22.093Z,2392
2018-04-24T13:19:24.527Z,2680
2018-04-24T13:20:26.968Z,2380
2018-04-24T13:21:29.408Z,2244
2018-04-24T13:22:31.841Z,2104
2018-04-24T13:23:34.263Z,2308
2018-04-24T13:24:36.996Z,2096
2018-04-24T13:25:39.439Z,1920
2018-04-24T13:26:42.223Z,2040
2018-04-24T13:27:44.654Z,2040
2018-04-24T13:28:47.091Z,1928
2018-04-24T13:29:49.529Z,2172
2018-04-24T13:30:51.982Z,1964
2018-04-24T13:31:54.713Z,1808
2018-04-24T13:32:57.554Z,1804
2018-04-24T13:34:00.303Z,1644
2018-04-24T13:35:03.062Z,1492
2018-04-24T13:36:05.504Z,1548
2018-04-24T13:37:08.390Z,1764
2018-04-24T13:38:10.772Z,1884
2018-04-24T13:39:13.502Z,2324
2018-04-24T13:40:15.935Z,2796
2018-04-24T13:41:18.366Z,3720
2018-04-24T13:42:20.820Z,7040
2018-04-24T13:43:23.260Z,8844
2018-04-24T13:44:25.689Z,4908
2018-04-24T13:45:28.134Z,5084
2018-04-24T13:46:30.571Z,5968
2018-04-24T13:47:33.410Z,5460
2018-04-24T13:48:35.846Z,5640
2018-04-24T13:49:38.297Z,8292
2018-04-24T13:50:41.019Z,11440
2018-04-24T13:51:43.455Z,11744
2018-04-24T13:52:45.901Z,11364
2018-04-24T13:53:48.331Z,8868
2018-04-24T13:54:51.445Z,7228
2018-04-24T13:55:53.893Z,6920
2018-04-24T13:56:56.326Z,5880
2018-04-24T13:57:58.756Z,5084
2018-04-24T13:59:01.206Z,4660
2018-04-24T14:00:03.638Z,4512
2018-04-24T14:01:06.076Z,4204
2018-04-24T14:02:08.505Z,4252
2018-04-24T14:03:10.938Z,4008
2018-04-24T14:04:13.381Z,3956
2018-04-24T14:05:15.821Z,3940
2018-04-24T14:06:18.276Z,4164
2018-04-24T14:07:21.070Z,4064
2018-04-24T14:08:23.805Z,4060